x

Shumagin Islands - 85nm South Of Sand Point, Ak (46075) Wave Buoy

8:50 - Sat 29th Aug 2015 All times are UTC.

  • Sig Wave height 9.8ft
  • Peak Period 8s
  • Average Period 6s
  • Wind
    27mph, 34mph gusts
  • Sea Temp 55°f
  • Aire Temp 56°f
  • Sea Pressure 1010.3mb

More Historic Weather Station data

Upgrade to MSW Pro to gain access to the past 30 days of data for over 8000 Wavebouys and Weather Stations around the globe.

Join Pro

Comparision Forecast

View Surf forecast
   
sáb 08/29 8:50 10ft 8s 6s 27 34 mph 1010.3mb 55f 56f
7:50 10ft 8s 6s 27 36 mph 1010.3mb 55f 56f
6:50 9.5ft 7s 6s 29 36 mph 1010.9mb 55f 57f
5:50 9ft 7s 6s 36 43 mph 1010.3mb 55f 57f
4:50 10ft 8s 6s 27 34 mph 1011.6mb 55f 56f
3:50 10ft 8s 6s 27 36 mph 1012.2mb 55f 56f
2:50  -   -   -  25 29 mph 1013.7mb 56f -
1:50 7ft 6s 6s 22 29 mph 1014.7mb 56f 55f
12:50 6.5ft 6s 5s 27 34 mph 1015mb 56f 56f
11:50 6.5ft 6s 5s 25 31 mph 1015.6mb 56f 57f
10:50 6ft 14s 6s 18 22 mph 1016.9mb 56f 57f
9:50 6.5ft 14s 6s 20 25 mph 1017.7mb 56f 57f
8:50 6ft 15s 5s 22 27 mph 1018.7mb 56f 56f
7:50 5ft 14s 6s 22 25 mph 1019.7mb 56f 57f
6:50 5ft 15s 6s 20 29 mph 1020.4mb 56f 57f
5:50 5.5ft 14s 6s 16 18 mph 1021.2mb 56f 57f
4:50 6ft 15s 6s 13 18 mph 1021.7mb 56f 57f
3:50 6ft 15s 6s 18 25 mph 1022.5mb 56f 57f
2:50 6ft 15s 6s 18 22 mph 1023mb 56f 56f
1:50 6ft 15s 6s 18 22 mph 1023.7mb 56f 56f
12:50 5.5ft 15s 6s 16 20 mph 1024.4mb 56f 56f
vie 08/28 11:50 5.5ft 14s 6s 20 25 mph 1024.5mb 56f 55f
10:50 6ft 15s 6s 13 16 mph 1025.5mb 56f 55f
9:50 6ft 14s 6s 13 16 mph 1025.9mb 55f 55f
8:50 6ft 16s 6s 13 16 mph 1026.5mb 56f 54f
7:50 7.5ft 16s 6s 13 16 mph 1026.2mb 56f 54f
6:50 7ft 15s 6s 18 20 mph 1026.3mb 56f 55f
5:50 7ft 16s 6s 18 22 mph 1026.4mb 56f 55f
4:50 8ft 16s 6s 20 22 mph 1026.5mb 56f 54f
3:50 8ft 16s 6s 22 25 mph 1026.7mb 56f 54f
2:50 7.5ft 16s 6s 20 22 mph 1026.9mb 56f 54f
1:50 7.5ft 6s 5s 22 27 mph 1027.1mb 56f 54f
12:50 8ft 16s 6s 20 22 mph 1027.1mb 56f 54f
11:50 8ft 17s 6s 20 22 mph 1027.3mb 56f 55f
10:50 7.5ft 17s 6s 20 22 mph 1027.8mb 56f 55f
9:50 7ft 8s 6s 16 20 mph 1027.9mb 56f 55f
8:50 7ft 7s 6s 16 20 mph 1028.1mb 56f 55f
7:50 7ft 17s 6s 18 22 mph 1028.1mb 56f 55f
6:50 7ft 7s 5s 22 27 mph 1027.6mb 56f 56f
5:50 7ft 6s 5s 13 18 mph 1027.9mb 56f 56f
4:50 6.5ft 6s 5s 20 22 mph 1027.7mb 56f 56f
3:50 6ft 7s 5s 27 31 mph 1027.3mb 56f 56f
2:50 6ft 7s 5s 18 27 mph 1027.6mb 56f 57f
1:50 6.5ft 15s 6s 20 25 mph 1027.3mb 56f 57f
12:50 6ft 6s 5s 25 29 mph 1027.5mb 56f 56f
jue 08/27 11:50 6.5ft 6s 6s 22 27 mph 1027.7mb 56f 56f
10:50 6ft 14s 5s 25 29 mph 1027.9mb 56f 56f
9:50 5ft 8s 5s 25 31 mph 1028.5mb 56f 55f
8:50 5ft 15s 5s 22 29 mph 1029.2mb 56f 55f
7:50 6ft 15s 6s 20 22 mph 1029.2mb 56f 57f
6:50 5ft 8s 5s 20 22 mph 1029.1mb 56f 58f
5:50 6ft 8s 6s 18 20 mph 1029.5mb 56f 57f
4:50 6ft 15s 6s 13 18 mph 1029.6mb 56f 57f
3:50 6ft 8s 6s 16 20 mph 1029.6mb 56f 57f
2:50 6ft 8s 6s 18 20 mph 1029.6mb 56f 57f
1:50 6.5ft 8s 6s 18 20 mph 1030mb 56f 57f
12:50 6.5ft 8s 6s 18 20 mph 1029.8mb 56f 57f
11:50 6ft 15s 6s 18 22 mph 1029.9mb 56f 56f
10:50 6.5ft 7s 6s 18 20 mph 1029.8mb 56f 56f
9:50 6.5ft 7s 6s 18 20 mph 1029.9mb 56f 56f
8:50 6ft 13s 6s 18 22 mph 1030mb 56f 55f
7:50 6.5ft 15s 6s 18 25 mph 1029.9mb 56f 55f
6:50 7.5ft 7s 6s 18 22 mph 1029.7mb 56f 55f
5:50 7ft 8s 6s 20 25 mph 1029.5mb 56f 54f
4:50 7ft 8s 6s 16 18 mph 1029.7mb 56f 55f
3:50 7ft 7s 6s 18 22 mph 1029.5mb 56f 55f
2:50 7ft 14s 6s 20 25 mph 1029.6mb 55f 55f
1:50 7ft 8s 6s 20 25 mph 1029.7mb 56f 55f
12:50 7ft 8s 6s 20 25 mph 1029.8mb 55f 56f
mié 08/26 11:50 6.5ft 7s 6s 20 27 mph 1029.7mb 56f 56f
10:50 7ft 7s 6s 20 25 mph 1029.7mb 56f 55f
9:50 7ft 8s 6s 20 27 mph 1029.9mb 56f 55f
8:50 7ft 7s 6s 22 25 mph 1029.8mb 56f 56f
7:50 6ft 8s 6s 20 25 mph 1029.8mb 56f 55f
6:50 6.5ft 7s 6s 16 20 mph 1030.1mb 56f 56f
5:50 7ft 8s 6s 16 20 mph 1030.3mb 56f 56f
4:50 7.5ft 8s 6s 18 22 mph 1030.3mb 56f 56f
3:50 8ft 8s 6s 18 25 mph 1030.1mb 55f 56f
2:50 8ft 7s 6s 20 22 mph 1030.2mb 56f 56f
1:50 8ft 8s 6s 22 27 mph 1030.1mb 56f 56f
12:50 7ft 7s 6s 20 25 mph 1029.9mb 56f 56f
11:50 7ft 7s 6s 18 22 mph 1030.2mb 56f 56f
10:50 7ft 8s 6s 20 22 mph 1030.4mb 56f 56f
9:50 6.5ft 7s 6s 20 25 mph 1030.5mb 56f 56f
8:50 6.5ft 14s 6s 20 25 mph 1030.2mb 56f 55f
7:50 6.5ft 7s 6s 20 25 mph 1030.4mb 56f 55f
6:50 6.5ft 7s 6s 18 22 mph 1030.3mb 56f 55f
5:50 6ft 14s 6s 18 22 mph 1029.9mb 56f 55f
4:50 6ft 14s 6s 18 25 mph 1030.2mb 56f 55f
3:50 6.5ft 13s 6s 18 20 mph 1030.6mb 56f 55f
2:50 6ft 7s 6s 16 20 mph 1030.4mb 56f 55f
1:50 6ft 15s 6s 18 22 mph 1030.7mb 56f 55f
12:50 6ft 15s 6s 18 22 mph 1030.9mb 56f 55f
mar 08/25 11:50 6.5ft 15s 6s 18 22 mph 1030.8mb 56f 55f
10:50 5.5ft 15s 6s 18 22 mph 1031.1mb 56f 55f
9:50 6ft 15s 6s 18 22 mph 1031.3mb 56f 55f